sensor_id;sensor_type;location;lat;lon;timestamp;P1;durP1;ratioP1;P2;durP2;ratioP2
80619;SDS011;69979;53.682;-2.690;2023-08-21T00:00:33;6;;;5;;
80619;SDS011;69979;53.682;-2.690;2023-08-21T00:02:58;5;;;5;;
80619;SDS011;69979;53.682;-2.690;2023-08-21T00:05:24;5;;;4;;
80619;SDS011;69979;53.682;-2.690;2023-08-21T00:07:49;4;;;3;;
80619;SDS011;69979;53.682;-2.690;2023-08-21T00:10:14;4;;;4;;
80619;SDS011;69979;53.682;-2.690;2023-08-21T00:12:40;3;;;3;;
80619;SDS011;69979;53.682;-2.690;2023-08-21T00:15:05;5;;;5;;
80619;SDS011;69979;53.682;-2.690;2023-08-21T00:17:31;4;;;4;;
80619;SDS011;69979;53.682;-2.690;2023-08-21T00:19:56;2;;;2;;
80619;SDS011;69979;53.682;-2.690;2023-08-21T00:22:21;3;;;3;;
80619;SDS011;69979;53.682;-2.690;2023-08-21T00:24:47;3;;;3;;
80619;SDS011;69979;53.682;-2.690;2023-08-21T00:27:12;4;;;4;;
80619;SDS011;69979;53.682;-2.690;2023-08-21T00:29:37;4;;;4;;
80619;SDS011;69979;53.682;-2.690;2023-08-21T00:32:03;5;;;4;;
80619;SDS011;69979;53.682;-2.690;2023-08-21T00:34:28;3;;;3;;
80619;SDS011;69979;53.682;-2.690;2023-08-21T00:36:54;4;;;4;;
80619;SDS011;69979;53.682;-2.690;2023-08-21T00:39:19;4;;;4;;
80619;SDS011;69979;53.682;-2.690;2023-08-21T00:41:44;6;;;5;;
80619;SDS011;69979;53.682;-2.690;2023-08-21T00:44:10;6;;;5;;
80619;SDS011;69979;53.682;-2.690;2023-08-21T00:46:35;4;;;3;;
80619;SDS011;69979;53.682;-2.690;2023-08-21T00:49:01;3;;;3;;
80619;SDS011;69979;53.682;-2.690;2023-08-21T00:51:26;5;;;5;;
80619;SDS011;69979;53.682;-2.690;2023-08-21T00:53:52;4;;;4;;
80619;SDS011;69979;53.682;-2.690;2023-08-21T00:56:17;6;;;5;;
80619;SDS011;69979;53.682;-2.690;2023-08-21T00:58:42;6;;;3;;
80619;SDS011;69979;53.682;-2.690;2023-08-21T01:01:08;5;;;5;;
80619;SDS011;69979;53.682;-2.690;2023-08-21T01:03:33;3;;;3;;
80619;SDS011;69979;53.682;-2.690;2023-08-21T01:05:59;5;;;5;;
80619;SDS011;69979;53.682;-2.690;2023-08-21T01:08:25;6;;;5;;
80619;SDS011;69979;53.682;-2.690;2023-08-21T01:10:51;5;;;5;;
80619;SDS011;69979;53.682;-2.690;2023-08-21T01:13:19;7;;;5;;
80619;SDS011;69979;53.682;-2.690;2023-08-21T01:15:40;5;;;5;;
80619;SDS011;69979;53.682;-2.690;2023-08-21T01:18:06;5;;;5;;
80619;SDS011;69979;53.682;-2.690;2023-08-21T01:20:31;5;;;5;;
80619;SDS011;69979;53.682;-2.690;2023-08-21T01:22:57;3;;;3;;
80619;SDS011;69979;53.682;-2.690;2023-08-21T01:25:22;6;;;6;;
80619;SDS011;69979;53.682;-2.690;2023-08-21T01:27:48;5;;;5;;
80619;SDS011;69979;53.682;-2.690;2023-08-21T01:30:13;6;;;6;;
80619;SDS011;69979;53.682;-2.690;2023-08-21T01:32:40;4;;;3;;
80619;SDS011;69979;53.682;-2.690;2023-08-21T01:35:04;4;;;4;;
80619;SDS011;69979;53.682;-2.690;2023-08-21T01:37:29;5;;;5;;
80619;SDS011;69979;53.682;-2.690;2023-08-21T01:39:57;6;;;6;;
80619;SDS011;69979;53.682;-2.690;2023-08-21T01:42:20;7;;;7;;
80619;SDS011;69979;53.682;-2.690;2023-08-21T01:44:46;8;;;5;;
80619;SDS011;69979;53.682;-2.690;2023-08-21T01:47:11;6;;;6;;
80619;SDS011;69979;53.682;-2.690;2023-08-21T01:49:37;7;;;7;;
80619;SDS011;69979;53.682;-2.690;2023-08-21T01:52:02;6;;;6;;
80619;SDS011;69979;53.682;-2.690;2023-08-21T01:54:28;6;;;5;;
80619;SDS011;69979;53.682;-2.690;2023-08-21T01:56:53;6;;;6;;
80619;SDS011;69979;53.682;-2.690;2023-08-21T01:59:19;6;;;5;;
80619;SDS011;69979;53.682;-2.690;2023-08-21T02:01:44;6;;;6;;
80619;SDS011;69979;53.682;-2.690;2023-08-21T02:04:11;5;;;5;;
80619;SDS011;69979;53.682;-2.690;2023-08-21T02:06:35;6;;;6;;
80619;SDS011;69979;53.682;-2.690;2023-08-21T02:09:02;6;;;6;;
80619;SDS011;69979;53.682;-2.690;2023-08-21T02:11:26;7;;;7;;
80619;SDS011;69979;53.682;-2.690;2023-08-21T02:13:51;7;;;7;;
80619;SDS011;69979;53.682;-2.690;2023-08-21T02:16:17;9;;;8;;
80619;SDS011;69979;53.682;-2.690;2023-08-21T02:18:42;8;;;7;;
80619;SDS011;69979;53.682;-2.690;2023-08-21T02:21:08;9;;;7;;
80619;SDS011;69979;53.682;-2.690;2023-08-21T02:23:33;5;;;5;;
80619;SDS011;69979;53.682;-2.690;2023-08-21T02:25:58;8;;;8;;
80619;SDS011;69979;53.682;-2.690;2023-08-21T02:28:24;8;;;7;;
80619;SDS011;69979;53.682;-2.690;2023-08-21T02:30:49;9;;;8;;
80619;SDS011;69979;53.682;-2.690;2023-08-21T02:33:15;7;;;7;;
80619;SDS011;69979;53.682;-2.690;2023-08-21T02:35:40;7;;;6;;
80619;SDS011;69979;53.682;-2.690;2023-08-21T02:38:06;8;;;7;;
80619;SDS011;69979;53.682;-2.690;2023-08-21T02:40:31;6;;;6;;
80619;SDS011;69979;53.682;-2.690;2023-08-21T02:42:57;7;;;6;;
80619;SDS011;69979;53.682;-2.690;2023-08-21T02:45:22;8;;;8;;
80619;SDS011;69979;53.682;-2.690;2023-08-21T02:47:48;8;;;7;;
80619;SDS011;69979;53.682;-2.690;2023-08-21T02:50:13;7;;;6;;
80619;SDS011;69979;53.682;-2.690;2023-08-21T02:52:39;9;;;9;;
80619;SDS011;69979;53.682;-2.690;2023-08-21T02:55:05;9;;;8;;
80619;SDS011;69979;53.682;-2.690;2023-08-21T02:57:30;8;;;8;;
80619;SDS011;69979;53.682;-2.690;2023-08-21T02:59:56;8;;;8;;
80619;SDS011;69979;53.682;-2.690;2023-08-21T03:04:46;7;;;6;;
80619;SDS011;69979;53.682;-2.690;2023-08-21T03:07:12;7;;;7;;
80619;SDS011;69979;53.682;-2.690;2023-08-21T03:09:38;6;;;6;;
80619;SDS011;69979;53.682;-2.690;2023-08-21T03:12:03;5;;;5;;
80619;SDS011;69979;53.682;-2.690;2023-08-21T03:14:29;10;;;10;;
80619;SDS011;69979;53.682;-2.690;2023-08-21T03:16:54;7;;;7;;
80619;SDS011;69979;53.682;-2.690;2023-08-21T03:19:20;8;;;7;;
80619;SDS011;69979;53.682;-2.690;2023-08-21T03:21:45;7;;;7;;
80619;SDS011;69979;53.682;-2.690;2023-08-21T03:24:11;7;;;6;;
80619;SDS011;69979;53.682;-2.690;2023-08-21T03:26:36;8;;;7;;
80619;SDS011;69979;53.682;-2.690;2023-08-21T03:29:01;8;;;8;;
80619;SDS011;69979;53.682;-2.690;2023-08-21T03:31:27;8;;;7;;
80619;SDS011;69979;53.682;-2.690;2023-08-21T03:33:52;8;;;8;;
80619;SDS011;69979;53.682;-2.690;2023-08-21T03:36:18;7;;;7;;
80619;SDS011;69979;53.682;-2.690;2023-08-21T03:38:43;7;;;7;;
80619;SDS011;69979;53.682;-2.690;2023-08-21T03:41:09;8;;;8;;
80619;SDS011;69979;53.682;-2.690;2023-08-21T03:43:34;6;;;6;;
80619;SDS011;69979;53.682;-2.690;2023-08-21T03:46:00;7;;;7;;
80619;SDS011;69979;53.682;-2.690;2023-08-21T03:48:26;7;;;7;;
80619;SDS011;69979;53.682;-2.690;2023-08-21T03:50:51;7;;;6;;
80619;SDS011;69979;53.682;-2.690;2023-08-21T03:53:17;8;;;7;;
80619;SDS011;69979;53.682;-2.690;2023-08-21T03:55:42;8;;;8;;
80619;SDS011;69979;53.682;-2.690;2023-08-21T03:58:07;9;;;9;;
80619;SDS011;69979;53.682;-2.690;2023-08-21T04:00:33;8;;;8;;
80619;SDS011;69979;53.682;-2.690;2023-08-21T04:02:58;8;;;7;;
80619;SDS011;69979;53.682;-2.690;2023-08-21T04:05:24;6;;;6;;
80619;SDS011;69979;53.682;-2.690;2023-08-21T04:07:49;7;;;7;;
80619;SDS011;69979;53.682;-2.690;2023-08-21T04:10:15;8;;;7;;
80619;SDS011;69979;53.682;-2.690;2023-08-21T04:12:40;7;;;7;;
80619;SDS011;69979;53.682;-2.690;2023-08-21T04:15:07;8;;;7;;
80619;SDS011;69979;53.682;-2.690;2023-08-21T04:17:32;6;;;6;;
80619;SDS011;69979;53.682;-2.690;2023-08-21T04:19:57;7;;;7;;
80619;SDS011;69979;53.682;-2.690;2023-08-21T04:22:23;9;;;8;;
80619;SDS011;69979;53.682;-2.690;2023-08-21T04:24:48;8;;;7;;
80619;SDS011;69979;53.682;-2.690;2023-08-21T04:27:13;9;;;6;;
80619;SDS011;69979;53.682;-2.690;2023-08-21T04:29:39;8;;;8;;
80619;SDS011;69979;53.682;-2.690;2023-08-21T04:32:05;9;;;8;;
80619;SDS011;69979;53.682;-2.690;2023-08-21T04:34:31;8;;;7;;
80619;SDS011;69979;53.682;-2.690;2023-08-21T04:36:56;10;;;9;;
80619;SDS011;69979;53.682;-2.690;2023-08-21T04:39:21;7;;;7;;
80619;SDS011;69979;53.682;-2.690;2023-08-21T04:41:47;9;;;9;;
80619;SDS011;69979;53.682;-2.690;2023-08-21T04:44:12;8;;;8;;
80619;SDS011;69979;53.682;-2.690;2023-08-21T04:46:38;13;;;11;;
80619;SDS011;69979;53.682;-2.690;2023-08-21T04:49:04;8;;;7;;
80619;SDS011;69979;53.682;-2.690;2023-08-21T04:51:29;6;;;6;;
80619;SDS011;69979;53.682;-2.690;2023-08-21T04:53:55;7;;;7;;
80619;SDS011;69979;53.682;-2.690;2023-08-21T04:56:20;7;;;5;;
80619;SDS011;69979;53.682;-2.690;2023-08-21T04:58:46;6;;;6;;
80619;SDS011;69979;53.682;-2.690;2023-08-21T05:01:11;7;;;6;;
80619;SDS011;69979;53.682;-2.690;2023-08-21T05:03:37;7;;;7;;
80619;SDS011;69979;53.682;-2.690;2023-08-21T05:06:03;9;;;9;;
80619;SDS011;69979;53.682;-2.690;2023-08-21T05:08:28;6;;;6;;
80619;SDS011;69979;53.682;-2.690;2023-08-21T05:10:54;8;;;7;;
80619;SDS011;69979;53.682;-2.690;2023-08-21T05:13:19;7;;;7;;
80619;SDS011;69979;53.682;-2.690;2023-08-21T05:15:49;5;;;5;;
80619;SDS011;69979;53.682;-2.690;2023-08-21T05:18:10;7;;;5;;
80619;SDS011;69979;53.682;-2.690;2023-08-21T05:20:36;7;;;6;;
80619;SDS011;69979;53.682;-2.690;2023-08-21T05:23:01;8;;;8;;
80619;SDS011;69979;53.682;-2.690;2023-08-21T05:25:27;6;;;6;;
80619;SDS011;69979;53.682;-2.690;2023-08-21T05:27:52;8;;;6;;
80619;SDS011;69979;53.682;-2.690;2023-08-21T05:30:18;5;;;5;;
80619;SDS011;69979;53.682;-2.690;2023-08-21T05:32:43;9;;;8;;
80619;SDS011;69979;53.682;-2.690;2023-08-21T05:35:08;5;;;4;;
80619;SDS011;69979;53.682;-2.690;2023-08-21T05:37:34;6;;;6;;
80619;SDS011;69979;53.682;-2.690;2023-08-21T05:39:59;7;;;6;;
80619;SDS011;69979;53.682;-2.690;2023-08-21T05:42:25;8;;;8;;
80619;SDS011;69979;53.682;-2.690;2023-08-21T05:44:50;6;;;6;;
80619;SDS011;69979;53.682;-2.690;2023-08-21T05:47:16;7;;;6;;
80619;SDS011;69979;53.682;-2.690;2023-08-21T05:49:41;7;;;6;;
80619;SDS011;69979;53.682;-2.690;2023-08-21T05:52:08;6;;;6;;
80619;SDS011;69979;53.682;-2.690;2023-08-21T05:54:32;5;;;5;;
80619;SDS011;69979;53.682;-2.690;2023-08-21T05:56:58;6;;;6;;
80619;SDS011;69979;53.682;-2.690;2023-08-21T05:59:26;9;;;8;;
80619;SDS011;69979;53.682;-2.690;2023-08-21T06:01:49;7;;;7;;
80619;SDS011;69979;53.682;-2.690;2023-08-21T06:04:14;8;;;7;;
80619;SDS011;69979;53.682;-2.690;2023-08-21T06:06:40;7;;;6;;
80619;SDS011;69979;53.682;-2.690;2023-08-21T06:09:05;7;;;7;;
80619;SDS011;69979;53.682;-2.690;2023-08-21T06:11:31;6;;;6;;
80619;SDS011;69979;53.682;-2.690;2023-08-21T06:13:56;7;;;7;;
80619;SDS011;69979;53.682;-2.690;2023-08-21T06:16:22;7;;;7;;
80619;SDS011;69979;53.682;-2.690;2023-08-21T06:18:47;6;;;6;;
80619;SDS011;69979;53.682;-2.690;2023-08-21T06:21:13;6;;;6;;
80619;SDS011;69979;53.682;-2.690;2023-08-21T06:23:38;10;;;10;;
80619;SDS011;69979;53.682;-2.690;2023-08-21T06:26:04;9;;;7;;
80619;SDS011;69979;53.682;-2.690;2023-08-21T06:28:29;7;;;6;;
80619;SDS011;69979;53.682;-2.690;2023-08-21T06:30:56;7;;;7;;
80619;SDS011;69979;53.682;-2.690;2023-08-21T06:33:20;7;;;6;;
80619;SDS011;69979;53.682;-2.690;2023-08-21T06:35:46;7;;;7;;
80619;SDS011;69979;53.682;-2.690;2023-08-21T06:38:11;7;;;7;;
80619;SDS011;69979;53.682;-2.690;2023-08-21T06:40:37;7;;;6;;
80619;SDS011;69979;53.682;-2.690;2023-08-21T06:43:02;3;;;3;;
80619;SDS011;69979;53.682;-2.690;2023-08-21T06:45:28;7;;;7;;
80619;SDS011;69979;53.682;-2.690;2023-08-21T06:47:53;5;;;5;;
80619;SDS011;69979;53.682;-2.690;2023-08-21T06:50:19;6;;;6;;
80619;SDS011;69979;53.682;-2.690;2023-08-21T06:52:44;5;;;5;;
80619;SDS011;69979;53.682;-2.690;2023-08-21T06:55:10;5;;;5;;
80619;SDS011;69979;53.682;-2.690;2023-08-21T06:57:35;8;;;8;;
80619;SDS011;69979;53.682;-2.690;2023-08-21T07:00:01;6;;;4;;
80619;SDS011;69979;53.682;-2.690;2023-08-21T07:02:26;9;;;9;;
80619;SDS011;69979;53.682;-2.690;2023-08-21T07:04:51;5;;;5;;
80619;SDS011;69979;53.682;-2.690;2023-08-21T07:07:17;7;;;5;;
80619;SDS011;69979;53.682;-2.690;2023-08-21T07:09:42;6;;;5;;
80619;SDS011;69979;53.682;-2.690;2023-08-21T07:12:08;5;;;5;;
80619;SDS011;69979;53.682;-2.690;2023-08-21T07:14:33;7;;;7;;
80619;SDS011;69979;53.682;-2.690;2023-08-21T07:16:58;6;;;6;;
80619;SDS011;69979;53.682;-2.690;2023-08-21T07:19:24;6;;;5;;
80619;SDS011;69979;53.682;-2.690;2023-08-21T07:21:49;5;;;5;;
80619;SDS011;69979;53.682;-2.690;2023-08-21T07:24:15;6;;;4;;
80619;SDS011;69979;53.682;-2.690;2023-08-21T07:26:40;6;;;5;;
80619;SDS011;69979;53.682;-2.690;2023-08-21T07:29:06;5;;;4;;
80619;SDS011;69979;53.682;-2.690;2023-08-21T07:31:31;3;;;3;;
80619;SDS011;69979;53.682;-2.690;2023-08-21T07:33:56;5;;;5;;
80619;SDS011;69979;53.682;-2.690;2023-08-21T07:36:22;6;;;5;;
80619;SDS011;69979;53.682;-2.690;2023-08-21T07:38:47;4;;;4;;
80619;SDS011;69979;53.682;-2.690;2023-08-21T07:41:13;7;;;6;;
80619;SDS011;69979;53.682;-2.690;2023-08-21T07:43:39;7;;;7;;
80619;SDS011;69979;53.682;-2.690;2023-08-21T07:46:03;4;;;4;;
80619;SDS011;69979;53.682;-2.690;2023-08-21T07:48:28;8;;;7;;
80619;SDS011;69979;53.682;-2.690;2023-08-21T07:50:54;5;;;5;;
80619;SDS011;69979;53.682;-2.690;2023-08-21T07:53:19;5;;;5;;
80619;SDS011;69979;53.682;-2.690;2023-08-21T07:55:45;4;;;4;;
80619;SDS011;69979;53.682;-2.690;2023-08-21T07:58:10;7;;;4;;
80619;SDS011;69979;53.682;-2.690;2023-08-21T08:00:35;5;;;5;;
80619;SDS011;69979;53.682;-2.690;2023-08-21T08:03:00;5;;;4;;
80619;SDS011;69979;53.682;-2.690;2023-08-21T08:05:26;5;;;5;;
80619;SDS011;69979;53.682;-2.690;2023-08-21T08:07:51;4;;;4;;
80619;SDS011;69979;53.682;-2.690;2023-08-21T08:10:17;5;;;5;;
80619;SDS011;69979;53.682;-2.690;2023-08-21T08:12:42;3;;;3;;
80619;SDS011;69979;53.682;-2.690;2023-08-21T08:15:08;6;;;5;;
80619;SDS011;69979;53.682;-2.690;2023-08-21T08:17:33;4;;;4;;
80619;SDS011;69979;53.682;-2.690;2023-08-21T08:19:58;4;;;3;;
80619;SDS011;69979;53.682;-2.690;2023-08-21T08:22:24;4;;;4;;
80619;SDS011;69979;53.682;-2.690;2023-08-21T08:24:49;5;;;5;;
80619;SDS011;69979;53.682;-2.690;2023-08-21T08:27:15;4;;;4;;
80619;SDS011;69979;53.682;-2.690;2023-08-21T08:29:40;6;;;6;;
80619;SDS011;69979;53.682;-2.690;2023-08-21T08:32:05;6;;;5;;
80619;SDS011;69979;53.682;-2.690;2023-08-21T08:34:30;4;;;4;;
80619;SDS011;69979;53.682;-2.690;2023-08-21T08:36:55;4;;;4;;
80619;SDS011;69979;53.682;-2.690;2023-08-21T08:39:21;4;;;4;;
80619;SDS011;69979;53.682;-2.690;2023-08-21T08:41:48;4;;;4;;
80619;SDS011;69979;53.682;-2.690;2023-08-21T08:44:11;4;;;4;;
80619;SDS011;69979;53.682;-2.690;2023-08-21T08:46:37;4;;;4;;
80619;SDS011;69979;53.682;-2.690;2023-08-21T08:49:02;4;;;4;;
80619;SDS011;69979;53.682;-2.690;2023-08-21T08:51:28;5;;;4;;
80619;SDS011;69979;53.682;-2.690;2023-08-21T08:53:53;3;;;3;;
80619;SDS011;69979;53.682;-2.690;2023-08-21T08:56:18;5;;;5;;
80619;SDS011;69979;53.682;-2.690;2023-08-21T08:58:44;3;;;3;;
80619;SDS011;69979;53.682;-2.690;2023-08-21T09:01:09;4;;;4;;
80619;SDS011;69979;53.682;-2.690;2023-08-21T09:03:34;3;;;2;;
80619;SDS011;69979;53.682;-2.690;2023-08-21T09:06:00;4;;;3;;
80619;SDS011;69979;53.682;-2.690;2023-08-21T09:08:25;2;;;2;;
80619;SDS011;69979;53.682;-2.690;2023-08-21T09:10:50;5;;;4;;
80619;SDS011;69979;53.682;-2.690;2023-08-21T09:13:17;4;;;3;;
80619;SDS011;69979;53.682;-2.690;2023-08-21T09:15:41;2;;;2;;
80619;SDS011;69979;53.682;-2.690;2023-08-21T09:18:08;4;;;3;;
80619;SDS011;69979;53.682;-2.690;2023-08-21T09:20:34;4;;;3;;
80619;SDS011;69979;53.682;-2.690;2023-08-21T09:22:57;4;;;4;;
80619;SDS011;69979;53.682;-2.690;2023-08-21T09:25:23;3;;;2;;
80619;SDS011;69979;53.682;-2.690;2023-08-21T09:27:48;3;;;3;;
80619;SDS011;69979;53.682;-2.690;2023-08-21T09:30:13;4;;;4;;
80619;SDS011;69979;53.682;-2.690;2023-08-21T09:35:04;4;;;3;;
80619;SDS011;69979;53.682;-2.690;2023-08-21T09:37:29;5;;;5;;
80619;SDS011;69979;53.682;-2.690;2023-08-21T09:39:56;4;;;4;;
80619;SDS011;69979;53.682;-2.690;2023-08-21T09:42:20;4;;;4;;
80619;SDS011;69979;53.682;-2.690;2023-08-21T09:44:45;6;;;6;;
80619;SDS011;69979;53.682;-2.690;2023-08-21T09:47:11;4;;;4;;
80619;SDS011;69979;53.682;-2.690;2023-08-21T09:49:46;4;;;4;;
80619;SDS011;69979;53.682;-2.690;2023-08-21T09:52:01;3;;;3;;
80619;SDS011;69979;53.682;-2.690;2023-08-21T09:54:27;4;;;3;;
80619;SDS011;69979;53.682;-2.690;2023-08-21T09:56:52;4;;;4;;
80619;SDS011;69979;53.682;-2.690;2023-08-21T09:59:22;4;;;4;;
80619;SDS011;69979;53.682;-2.690;2023-08-21T10:01:43;3;;;3;;
80619;SDS011;69979;53.682;-2.690;2023-08-21T10:04:08;4;;;3;;
80619;SDS011;69979;53.682;-2.690;2023-08-21T10:06:33;4;;;4;;
80619;SDS011;69979;53.682;-2.690;2023-08-21T10:08:59;4;;;3;;
80619;SDS011;69979;53.682;-2.690;2023-08-21T10:11:24;5;;;4;;
80619;SDS011;69979;53.682;-2.690;2023-08-21T10:13:49;3;;;3;;
80619;SDS011;69979;53.682;-2.690;2023-08-21T10:16:15;3;;;3;;
80619;SDS011;69979;53.682;-2.690;2023-08-21T10:18:43;3;;;3;;
80619;SDS011;69979;53.682;-2.690;2023-08-21T10:21:11;5;;;4;;
80619;SDS011;69979;53.682;-2.690;2023-08-21T10:23:31;4;;;4;;
80619;SDS011;69979;53.682;-2.690;2023-08-21T10:25:57;4;;;4;;
80619;SDS011;69979;53.682;-2.690;2023-08-21T10:28:21;2;;;2;;
80619;SDS011;69979;53.682;-2.690;2023-08-21T10:30:47;2;;;2;;
80619;SDS011;69979;53.682;-2.690;2023-08-21T10:33:12;4;;;4;;
80619;SDS011;69979;53.682;-2.690;2023-08-21T10:35:37;3;;;3;;
80619;SDS011;69979;53.682;-2.690;2023-08-21T10:38:09;3;;;3;;
80619;SDS011;69979;53.682;-2.690;2023-08-21T10:40:28;4;;;3;;
80619;SDS011;69979;53.682;-2.690;2023-08-21T10:42:53;5;;;5;;
80619;SDS011;69979;53.682;-2.690;2023-08-21T10:45:19;4;;;4;;
80619;SDS011;69979;53.682;-2.690;2023-08-21T10:47:44;4;;;4;;
80619;SDS011;69979;53.682;-2.690;2023-08-21T10:50:09;5;;;5;;
80619;SDS011;69979;53.682;-2.690;2023-08-21T10:52:35;5;;;5;;
80619;SDS011;69979;53.682;-2.690;2023-08-21T10:55:00;3;;;3;;
80619;SDS011;69979;53.682;-2.690;2023-08-21T10:57:26;3;;;3;;
80619;SDS011;69979;53.682;-2.690;2023-08-21T10:59:51;3;;;3;;
80619;SDS011;69979;53.682;-2.690;2023-08-21T11:02:16;4;;;4;;
80619;SDS011;69979;53.682;-2.690;2023-08-21T11:04:41;3;;;3;;
80619;SDS011;69979;53.682;-2.690;2023-08-21T11:07:07;3;;;3;;
80619;SDS011;69979;53.682;-2.690;2023-08-21T11:09:35;4;;;4;;
80619;SDS011;69979;53.682;-2.690;2023-08-21T11:11:57;4;;;4;;
80619;SDS011;69979;53.682;-2.690;2023-08-21T11:14:25;4;;;4;;
80619;SDS011;69979;53.682;-2.690;2023-08-21T11:16:48;4;;;3;;
80619;SDS011;69979;53.682;-2.690;2023-08-21T11:19:13;4;;;4;;
80619;SDS011;69979;53.682;-2.690;2023-08-21T11:21:39;4;;;4;;
80619;SDS011;69979;53.682;-2.690;2023-08-21T11:24:04;3;;;3;;
80619;SDS011;69979;53.682;-2.690;2023-08-21T11:26:29;2;;;2;;
80619;SDS011;69979;53.682;-2.690;2023-08-21T11:28:55;2;;;2;;
80619;SDS011;69979;53.682;-2.690;2023-08-21T11:31:20;2;;;2;;
80619;SDS011;69979;53.682;-2.690;2023-08-21T11:33:49;2;;;2;;
80619;SDS011;69979;53.682;-2.690;2023-08-21T11:36:11;3;;;3;;
80619;SDS011;69979;53.682;-2.690;2023-08-21T11:38:36;3;;;3;;
80619;SDS011;69979;53.682;-2.690;2023-08-21T11:41:02;3;;;3;;
80619;SDS011;69979;53.682;-2.690;2023-08-21T11:45:52;5;;;5;;
80619;SDS011;69979;53.682;-2.690;2023-08-21T11:48:19;3;;;2;;
80619;SDS011;69979;53.682;-2.690;2023-08-21T11:50:43;3;;;3;;
80619;SDS011;69979;53.682;-2.690;2023-08-21T11:53:08;3;;;2;;
80619;SDS011;69979;53.682;-2.690;2023-08-21T11:55:34;4;;;3;;
80619;SDS011;69979;53.682;-2.690;2023-08-21T11:57:59;4;;;4;;
80619;SDS011;69979;53.682;-2.690;2023-08-21T12:00:26;2;;;2;;
80619;SDS011;69979;53.682;-2.690;2023-08-21T12:02:53;4;;;3;;
80619;SDS011;69979;53.682;-2.690;2023-08-21T12:05:15;3;;;3;;
80619;SDS011;69979;53.682;-2.690;2023-08-21T12:07:40;3;;;3;;
80619;SDS011;69979;53.682;-2.690;2023-08-21T12:10:06;3;;;3;;
80619;SDS011;69979;53.682;-2.690;2023-08-21T12:12:31;4;;;4;;
80619;SDS011;69979;53.682;-2.690;2023-08-21T12:14:56;4;;;3;;
80619;SDS011;69979;53.682;-2.690;2023-08-21T12:17:22;3;;;2;;
80619;SDS011;69979;53.682;-2.690;2023-08-21T12:19:47;2;;;2;;
80619;SDS011;69979;53.682;-2.690;2023-08-21T12:22:12;3;;;3;;
80619;SDS011;69979;53.682;-2.690;2023-08-21T12:24:38;2;;;2;;
80619;SDS011;69979;53.682;-2.690;2023-08-21T12:27:03;2;;;2;;
80619;SDS011;69979;53.682;-2.690;2023-08-21T12:29:28;2;;;2;;
80619;SDS011;69979;53.682;-2.690;2023-08-21T12:31:54;1;;;1;;
80619;SDS011;69979;53.682;-2.690;2023-08-21T12:34:19;2;;;2;;
80619;SDS011;69979;53.682;-2.690;2023-08-21T12:36:44;2;;;2;;
80619;SDS011;69979;53.682;-2.690;2023-08-21T12:39:10;4;;;4;;
80619;SDS011;69979;53.682;-2.690;2023-08-21T12:41:35;3;;;3;;
80619;SDS011;69979;53.682;-2.690;2023-08-21T12:44:00;2;;;2;;
80619;SDS011;69979;53.682;-2.690;2023-08-21T12:46:26;2;;;2;;
80619;SDS011;69979;53.682;-2.690;2023-08-21T12:48:51;2;;;2;;
80619;SDS011;69979;53.682;-2.690;2023-08-21T12:51:16;1;;;1;;
80619;SDS011;69979;53.682;-2.690;2023-08-21T12:53:42;2;;;2;;
80619;SDS011;69979;53.682;-2.690;2023-08-21T12:56:07;3;;;3;;
80619;SDS011;69979;53.682;-2.690;2023-08-21T12:58:32;3;;;3;;
80619;SDS011;69979;53.682;-2.690;2023-08-21T13:00:58;3;;;3;;
80619;SDS011;69979;53.682;-2.690;2023-08-21T13:03:23;4;;;4;;
80619;SDS011;69979;53.682;-2.690;2023-08-21T13:05:49;2;;;2;;
80619;SDS011;69979;53.682;-2.690;2023-08-21T13:08:14;4;;;4;;
80619;SDS011;69979;53.682;-2.690;2023-08-21T13:10:39;4;;;4;;
80619;SDS011;69979;53.682;-2.690;2023-08-21T13:13:05;2;;;2;;
80619;SDS011;69979;53.682;-2.690;2023-08-21T13:15:30;1;;;1;;
80619;SDS011;69979;53.682;-2.690;2023-08-21T13:17:56;2;;;2;;
80619;SDS011;69979;53.682;-2.690;2023-08-21T13:20:21;2;;;2;;
80619;SDS011;69979;53.682;-2.690;2023-08-21T13:22:46;2;;;2;;
80619;SDS011;69979;53.682;-2.690;2023-08-21T13:25:11;4;;;3;;
80619;SDS011;69979;53.682;-2.690;2023-08-21T13:27:37;3;;;2;;
80619;SDS011;69979;53.682;-2.690;2023-08-21T13:30:02;3;;;3;;
80619;SDS011;69979;53.682;-2.690;2023-08-21T13:32:27;3;;;3;;
80619;SDS011;69979;53.682;-2.690;2023-08-21T13:34:53;1;;;1;;
80619;SDS011;69979;53.682;-2.690;2023-08-21T13:37:18;2;;;2;;
80619;SDS011;69979;53.682;-2.690;2023-08-21T13:39:43;3;;;3;;
80619;SDS011;69979;53.682;-2.690;2023-08-21T13:42:09;2;;;1;;
80619;SDS011;69979;53.682;-2.690;2023-08-21T13:44:34;3;;;3;;
80619;SDS011;69979;53.682;-2.690;2023-08-21T13:46:59;4;;;4;;
80619;SDS011;69979;53.682;-2.690;2023-08-21T13:49:25;2;;;2;;
80619;SDS011;69979;53.682;-2.690;2023-08-21T13:51:50;2;;;1;;
80619;SDS011;69979;53.682;-2.690;2023-08-21T13:54:16;1;;;1;;
80619;SDS011;69979;53.682;-2.690;2023-08-21T13:56:41;1;;;1;;
80619;SDS011;69979;53.682;-2.690;2023-08-21T13:59:06;1;;;1;;
80619;SDS011;69979;53.682;-2.690;2023-08-21T14:01:32;2;;;1;;
80619;SDS011;69979;53.682;-2.690;2023-08-21T14:03:57;3;;;3;;
80619;SDS011;69979;53.682;-2.690;2023-08-21T14:06:23;1;;;1;;
80619;SDS011;69979;53.682;-2.690;2023-08-21T14:08:48;1;;;1;;
80619;SDS011;69979;53.682;-2.690;2023-08-21T14:11:13;2;;;2;;
80619;SDS011;69979;53.682;-2.690;2023-08-21T14:13:39;2;;;2;;
80619;SDS011;69979;53.682;-2.690;2023-08-21T14:16:04;1;;;1;;
80619;SDS011;69979;53.682;-2.690;2023-08-21T14:18:29;2;;;2;;
80619;SDS011;69979;53.682;-2.690;2023-08-21T14:20:55;1;;;1;;
80619;SDS011;69979;53.682;-2.690;2023-08-21T14:23:20;2;;;2;;
80619;SDS011;69979;53.682;-2.690;2023-08-21T14:25:45;2;;;2;;
80619;SDS011;69979;53.682;-2.690;2023-08-21T14:28:11;1;;;1;;
80619;SDS011;69979;53.682;-2.690;2023-08-21T14:30:36;2;;;2;;
80619;SDS011;69979;53.682;-2.690;2023-08-21T14:33:01;2;;;2;;
80619;SDS011;69979;53.682;-2.690;2023-08-21T14:35:27;2;;;2;;
80619;SDS011;69979;53.682;-2.690;2023-08-21T14:37:52;5;;;4;;
80619;SDS011;69979;53.682;-2.690;2023-08-21T14:40:17;0;;;0;;
80619;SDS011;69979;53.682;-2.690;2023-08-21T14:42:43;2;;;2;;
80619;SDS011;69979;53.682;-2.690;2023-08-21T14:45:08;1;;;1;;
80619;SDS011;69979;53.682;-2.690;2023-08-21T14:47:33;0;;;0;;
80619;SDS011;69979;53.682;-2.690;2023-08-21T14:49:59;2;;;2;;
80619;SDS011;69979;53.682;-2.690;2023-08-21T14:52:24;1;;;1;;
80619;SDS011;69979;53.682;-2.690;2023-08-21T14:54:50;2;;;1;;
80619;SDS011;69979;53.682;-2.690;2023-08-21T14:57:15;1;;;1;;
80619;SDS011;69979;53.682;-2.690;2023-08-21T14:59:40;2;;;2;;
80619;SDS011;69979;53.682;-2.690;2023-08-21T15:02:05;2;;;1;;
80619;SDS011;69979;53.682;-2.690;2023-08-21T15:04:31;1;;;1;;
80619;SDS011;69979;53.682;-2.690;2023-08-21T15:06:56;2;;;1;;
80619;SDS011;69979;53.682;-2.690;2023-08-21T15:09:21;3;;;3;;
80619;SDS011;69979;53.682;-2.690;2023-08-21T15:11:47;2;;;2;;
80619;SDS011;69979;53.682;-2.690;2023-08-21T15:14:12;1;;;1;;
80619;SDS011;69979;53.682;-2.690;2023-08-21T15:16:37;1;;;1;;
80619;SDS011;69979;53.682;-2.690;2023-08-21T15:19:02;1;;;1;;
80619;SDS011;69979;53.682;-2.690;2023-08-21T15:21:28;2;;;2;;
80619;SDS011;69979;53.682;-2.690;2023-08-21T15:23:53;3;;;3;;
80619;SDS011;69979;53.682;-2.690;2023-08-21T15:26:19;2;;;2;;
80619;SDS011;69979;53.682;-2.690;2023-08-21T15:28:44;1;;;1;;
80619;SDS011;69979;53.682;-2.690;2023-08-21T15:31:09;1;;;1;;
80619;SDS011;69979;53.682;-2.690;2023-08-21T15:33:34;1;;;1;;
80619;SDS011;69979;53.682;-2.690;2023-08-21T15:36:00;1;;;1;;
80619;SDS011;69979;53.682;-2.690;2023-08-21T15:38:25;2;;;2;;
80619;SDS011;69979;53.682;-2.690;2023-08-21T15:40:50;1;;;1;;
80619;SDS011;69979;53.682;-2.690;2023-08-21T15:43:16;1;;;1;;
80619;SDS011;69979;53.682;-2.690;2023-08-21T15:45:41;1;;;1;;
80619;SDS011;69979;53.682;-2.690;2023-08-21T15:48:07;2;;;2;;
80619;SDS011;69979;53.682;-2.690;2023-08-21T15:50:32;1;;;1;;
80619;SDS011;69979;53.682;-2.690;2023-08-21T15:52:57;1;;;1;;